createdAt,value
2022-09-26T00:01:36.181Z,100568.25
2022-09-26T00:04:07.253Z,100566.03
2022-09-26T00:06:36.548Z,100566.66
2022-09-26T00:09:04.415Z,100570.44
2022-09-26T00:11:34.194Z,100559.19
2022-09-26T00:14:07.035Z,100562.66
2022-09-26T00:16:35.259Z,100563.09
2022-09-26T00:19:03.475Z,100555.97
2022-09-26T00:21:32.028Z,100546.34
2022-09-26T00:24:02.232Z,100551.50
2022-09-26T00:26:32.900Z,100549.13
2022-09-26T00:29:04.487Z,100552.19
2022-09-26T00:31:34.690Z,100555.66
2022-09-26T00:34:03.188Z,100548.50
2022-09-26T00:36:38.112Z,100543.34
2022-09-26T00:39:08.868Z,100548.78
2022-09-26T00:41:37.721Z,100547.63
2022-09-26T00:44:46.130Z,100546.53
2022-09-26T00:47:25.568Z,100539.78
2022-09-26T00:49:59.167Z,100550.81
2022-09-26T00:52:31.487Z,100549.19
2022-09-26T00:55:04.222Z,100545.09
2022-09-26T00:57:36.685Z,100544.41
2022-09-26T01:00:08.568Z,100546.16
2022-09-26T01:02:36.969Z,100539.31
2022-09-26T01:05:07.700Z,100534.19
2022-09-26T01:07:36.271Z,100531.34
2022-09-26T01:10:06.780Z,100528.09
2022-09-26T01:12:37.235Z,100529.16
2022-09-26T01:15:07.413Z,100529.88
2022-09-26T01:17:35.616Z,100526.13
2022-09-26T01:20:15.144Z,100516.78
2022-09-26T01:23:24.439Z,100521.09
2022-09-26T01:26:15.317Z,100516.81
2022-09-26T01:28:57.601Z,100514.16
2022-09-26T01:31:35.541Z,100510.72
2022-09-26T01:34:12.489Z,100503.22
2022-09-26T01:36:52.901Z,100508.03
2022-09-26T01:39:32.174Z,100503.72
2022-09-26T01:42:10.661Z,100496.63
2022-09-26T01:44:47.343Z,100496.56
2022-09-26T01:47:21.593Z,100486.47
2022-09-26T01:49:55.912Z,100485.72
2022-09-26T01:52:31.429Z,100484.63
2022-09-26T01:55:07.027Z,100488.25
2022-09-26T01:57:42.970Z,100492.53
2022-09-26T02:00:12.868Z,100486.84
2022-09-26T02:02:46.904Z,100495.94
2022-09-26T02:05:19.530Z,100488.16
2022-09-26T02:07:53.174Z,100486.78
2022-09-26T02:10:28.068Z,100482.31
2022-09-26T02:13:01.226Z,100470.63
2022-09-26T02:15:31.517Z,100469.56
2022-09-26T02:18:09.017Z,100471.50
2022-09-26T02:20:39.240Z,100467.31
2022-09-26T02:23:07.141Z,100464.31
2022-09-26T02:25:35.909Z,100464.25
2022-09-26T02:28:05.810Z,100465.06
2022-09-26T02:30:33.891Z,100461.56
2022-09-26T02:33:03.690Z,100464.94
2022-09-26T02:35:51.307Z,100460.16
2022-09-26T02:38:19.168Z,100454.06
2022-09-26T02:41:02.995Z,100446.94
2022-09-26T02:43:45.649Z,100446.09
2022-09-26T02:46:40.750Z,100444.38
2022-09-26T02:49:26.298Z,100446.06
2022-09-26T02:52:10.110Z,100438.75
2022-09-26T02:54:46.485Z,100436.72
2022-09-26T02:57:31.440Z,100428.56
2022-09-26T03:00:04.529Z,100431.69
2022-09-26T03:02:39.943Z,100432.13
2022-09-26T03:05:30.834Z,100431.75
2022-09-26T03:08:04.603Z,100430.34
2022-09-26T03:10:33.998Z,100434.59
2022-09-26T03:13:04.975Z,100434.38
2022-09-26T03:15:34.288Z,100428.97
2022-09-26T03:18:07.677Z,100427.22
2022-09-26T03:20:37.149Z,100420.44
2022-09-26T03:23:05.724Z,100435.81
2022-09-26T03:25:33.983Z,100432.50
2022-09-26T03:28:05.766Z,100432.81
2022-09-26T03:30:34.972Z,100426.91
2022-09-26T03:33:32.454Z,100422.44
2022-09-26T03:36:05.972Z,100411.94
2022-09-26T03:38:33.963Z,100421.69
2022-09-26T03:41:10.291Z,100411.53
2022-09-26T03:43:58.613Z,100409.31
2022-09-26T03:46:39.000Z,100401.69
2022-09-26T03:49:07.936Z,100407.50
2022-09-26T03:51:37.462Z,100406.63
2022-09-26T03:54:05.368Z,100402.00
2022-09-26T03:56:33.222Z,100407.38
2022-09-26T03:59:01.152Z,100400.91
2022-09-26T04:01:31.840Z,100400.91
2022-09-26T04:03:59.838Z,100392.09
2022-09-26T04:06:28.085Z,100396.00
2022-09-26T04:08:57.997Z,100394.00
2022-09-26T04:11:25.913Z,100387.59
2022-09-26T04:13:54.568Z,100383.25
2022-09-26T04:16:27.392Z,100380.94
2022-09-26T04:19:05.475Z,100379.38
2022-09-26T04:21:34.300Z,100380.31
2022-09-26T04:24:04.292Z,100376.69
2022-09-26T04:26:32.221Z,100375.06
2022-09-26T04:29:00.364Z,100369.84
2022-09-26T04:32:06.696Z,100368.78
2022-09-26T04:34:52.788Z,100378.47
2022-09-26T04:37:21.789Z,100373.44
2022-09-26T04:39:51.034Z,100373.38
2022-09-26T04:42:18.857Z,100379.34
2022-09-26T04:44:46.714Z,100380.75
2022-09-26T04:47:14.535Z,100380.06
2022-09-26T04:50:02.344Z,100382.59
2022-09-26T04:52:31.961Z,100374.81
2022-09-26T04:55:01.242Z,100379.34
2022-09-26T04:57:29.169Z,100373.28
2022-09-26T04:59:57.006Z,100372.13
2022-09-26T05:02:24.993Z,100374.59
2022-09-26T05:04:55.215Z,100373.19
2022-09-26T05:07:23.381Z,100369.22
2022-09-26T05:09:53.061Z,100364.63
2022-09-26T05:12:23.802Z,100377.72
2022-09-26T05:14:56.773Z,100370.41
2022-09-26T05:17:24.762Z,100361.06
2022-09-26T05:19:56.935Z,100369.31
2022-09-26T05:22:33.895Z,100362.09
2022-09-26T05:25:20.179Z,100364.97
2022-09-26T05:27:50.111Z,100357.13
2022-09-26T05:30:18.111Z,100365.94
2022-09-26T05:32:48.348Z,100366.25
2022-09-26T05:35:17.519Z,100372.41
2022-09-26T05:37:46.188Z,100369.13
2022-09-26T05:40:31.503Z,100365.34
2022-09-26T05:43:04.543Z,100365.41
2022-09-26T05:45:33.299Z,100365.59
2022-09-26T05:48:03.405Z,100360.00
2022-09-26T05:50:31.443Z,100358.16
2022-09-26T05:53:00.023Z,100364.00
2022-09-26T05:55:29.506Z,100360.22
2022-09-26T05:58:07.744Z,100354.31
2022-09-26T06:01:06.500Z,100348.56
2022-09-26T06:03:36.189Z,100358.72
2022-09-26T06:06:11.428Z,100354.25
2022-09-26T06:08:40.970Z,100357.31
2022-09-26T06:11:27.405Z,100355.72
2022-09-26T06:13:57.642Z,100357.09
2022-09-26T06:16:26.159Z,100346.09
2022-09-26T06:18:55.622Z,100340.47
2022-09-26T06:21:24.552Z,100344.78
2022-09-26T06:24:00.498Z,100343.69
2022-09-26T06:26:30.408Z,100344.97
2022-09-26T06:29:00.973Z,100339.59
2022-09-26T06:31:34.470Z,100348.56
2022-09-26T06:34:12.832Z,100334.13
2022-09-26T06:36:47.485Z,100333.72
2022-09-26T06:39:15.900Z,100332.50
2022-09-26T06:41:45.583Z,100325.72
2022-09-26T06:44:37.924Z,100324.09
2022-09-26T06:47:25.941Z,100319.84
2022-09-26T06:50:14.671Z,100325.53
2022-09-26T06:52:46.325Z,100320.75
2022-09-26T06:55:15.667Z,100321.06
2022-09-26T06:57:45.243Z,100313.25
2022-09-26T07:00:16.910Z,100314.94
2022-09-26T07:03:16.968Z,100309.88
2022-09-26T07:05:51.611Z,100298.72
2022-09-26T07:08:19.519Z,100300.84
2022-09-26T07:10:48.210Z,100303.84
2022-09-26T07:13:35.190Z,100297.75
2022-09-26T07:16:04.560Z,100297.66
2022-09-26T07:18:55.573Z,100306.09
2022-09-26T07:21:37.763Z,100304.41
2022-09-26T07:24:14.068Z,100297.56
2022-09-26T07:26:43.476Z,100302.88
2022-09-26T07:29:12.394Z,100301.13
2022-09-26T07:31:41.893Z,100300.47
2022-09-26T07:34:30.293Z,100295.78
2022-09-26T07:36:59.560Z,100295.28
2022-09-26T07:39:27.601Z,100287.97
2022-09-26T07:41:55.467Z,100279.88
2022-09-26T07:47:30.943Z,100287.41
2022-09-26T07:50:15.596Z,100281.22
2022-09-26T07:53:08.095Z,100277.88
2022-09-26T07:56:10.556Z,100287.97
2022-09-26T07:58:59.093Z,100279.22
2022-09-26T08:01:44.880Z,100272.84
2022-09-26T08:04:35.130Z,100283.13
2022-09-26T08:07:04.168Z,100290.09
2022-09-26T08:09:35.195Z,100281.31
2022-09-26T08:12:22.130Z,100280.94
2022-09-26T08:15:09.930Z,100284.13
2022-09-26T08:17:44.927Z,100276.91
2022-09-26T08:20:14.206Z,100275.06
2022-09-26T08:22:42.044Z,100273.22
2022-09-26T08:25:12.810Z,100277.06
2022-09-26T08:28:13.424Z,100271.16
2022-09-26T08:30:44.940Z,100267.81
2022-09-26T08:33:14.014Z,100271.56
2022-09-26T08:35:43.387Z,100273.59
2022-09-26T08:38:17.217Z,100275.75
2022-09-26T08:40:55.533Z,100260.72
2022-09-26T08:44:03.620Z,100264.31
2022-09-26T08:47:00.978Z,100253.66
2022-09-26T08:50:00.083Z,100254.34
2022-09-26T08:52:40.941Z,100248.94
2022-09-26T08:55:16.096Z,100256.72
2022-09-26T08:57:49.252Z,100248.63
2022-09-26T09:00:20.611Z,100242.50
2022-09-26T09:03:04.879Z,100238.97
2022-09-26T09:05:35.236Z,100241.16
2022-09-26T09:08:09.965Z,100240.31
2022-09-26T09:10:48.377Z,100232.84
2022-09-26T09:13:49.651Z,100215.66
2022-09-26T09:16:38.030Z,100218.56
2022-09-26T09:19:21.900Z,100220.06
2022-09-26T09:22:20.555Z,100217.53
2022-09-26T09:25:17.559Z,100216.75
2022-09-26T09:28:02.498Z,100213.16
2022-09-26T09:30:40.724Z,100209.41
2022-09-26T09:33:20.874Z,100206.84
2022-09-26T09:35:58.521Z,100210.38
2022-09-26T09:38:41.706Z,100209.66
2022-09-26T09:41:25.163Z,100200.38
2022-09-26T09:43:55.516Z,100197.34
2022-09-26T09:46:28.905Z,100197.34
2022-09-26T09:49:01.574Z,100189.56
2022-09-26T09:51:39.256Z,100182.38
2022-09-26T09:54:35.313Z,100176.31
2022-09-26T09:57:34.794Z,100165.03
2022-09-26T10:00:12.855Z,100167.75
2022-09-26T10:02:54.913Z,100173.50
2022-09-26T10:05:37.602Z,100163.72
2022-09-26T10:08:13.207Z,100158.75
2022-09-26T10:11:24.268Z,100160.13
2022-09-26T10:14:04.692Z,100161.03
2022-09-26T10:17:15.334Z,100145.22
2022-09-26T10:20:03.488Z,100156.31
2022-09-26T10:22:38.082Z,100142.69
2022-09-26T10:25:16.975Z,100138.53
2022-09-26T10:27:50.522Z,100129.72
2022-09-26T10:30:30.182Z,100137.06
2022-09-26T10:33:06.075Z,100132.81
2022-09-26T10:35:44.050Z,100127.31
2022-09-26T10:38:21.638Z,100131.34
2022-09-26T10:40:58.231Z,100108.25
2022-09-26T10:43:32.348Z,100113.38
2022-09-26T10:46:18.465Z,100111.84
2022-09-26T10:49:07.218Z,100108.44
2022-09-26T10:52:02.644Z,100119.47
2022-09-26T10:54:41.863Z,100116.50
2022-09-26T10:57:21.093Z,100111.81
2022-09-26T10:59:49.923Z,100118.81
2022-09-26T11:02:23.816Z,100111.34
2022-09-26T11:05:14.122Z,100114.56
2022-09-26T11:08:00.463Z,100116.53
2022-09-26T11:10:53.051Z,100112.69
2022-09-26T11:13:46.663Z,100106.25
2022-09-26T11:16:18.011Z,100103.75
2022-09-26T11:18:57.998Z,100097.97
2022-09-26T11:21:34.211Z,100100.31
2022-09-26T11:24:07.009Z,100090.22
2022-09-26T11:26:45.052Z,100085.63
2022-09-26T11:29:18.967Z,100085.94
2022-09-26T11:32:02.439Z,100076.94
2022-09-26T11:35:16.119Z,100067.34
2022-09-26T11:38:05.751Z,100073.47
2022-09-26T11:40:45.953Z,100067.91
2022-09-26T11:43:25.892Z,100063.25
2022-09-26T11:46:16.610Z,100066.91
2022-09-26T11:49:13.211Z,100061.69
2022-09-26T11:52:25.331Z,100061.69
2022-09-26T11:55:11.875Z,100059.94
2022-09-26T11:57:49.317Z,100056.34
2022-09-26T12:00:27.491Z,100052.78
2022-09-26T12:03:33.495Z,100049.69
2022-09-26T12:06:07.240Z,100038.78
2022-09-26T12:09:07.912Z,100047.38
2022-09-26T12:11:44.052Z,100038.41
2022-09-26T12:14:29.395Z,100033.06
2022-09-26T12:17:06.275Z,100023.06
2022-09-26T12:19:43.365Z,100014.09
2022-09-26T12:22:30.827Z,100009.53
2022-09-26T12:25:20.316Z,100014.97
2022-09-26T12:28:00.133Z,100012.91
2022-09-26T12:30:35.214Z,99999.19
2022-09-26T12:33:23.176Z,100009.56
2022-09-26T12:35:57.453Z,99990.53
2022-09-26T12:38:43.108Z,99996.97
2022-09-26T12:41:28.316Z,99998.16
2022-09-26T12:44:31.242Z,99989.84
2022-09-26T12:47:21.456Z,99989.56
2022-09-26T12:50:04.523Z,99981.91
2022-09-26T12:52:51.800Z,99976.69
2022-09-26T12:55:33.066Z,99981.44
2022-09-26T12:58:16.806Z,99971.06
2022-09-26T13:00:56.935Z,99976.78
2022-09-26T13:03:54.795Z,99973.50
2022-09-26T13:07:17.309Z,99979.03
2022-09-26T13:10:07.341Z,99969.59
2022-09-26T13:12:58.017Z,99972.03
2022-09-26T13:15:32.370Z,99966.22
2022-09-26T13:18:04.286Z,99974.88
2022-09-26T13:20:40.784Z,99970.25
2022-09-26T13:23:13.116Z,99954.81
2022-09-26T13:25:49.736Z,99965.25
2022-09-26T13:28:23.370Z,99953.53
2022-09-26T13:30:54.526Z,99947.53
2022-09-26T13:33:26.617Z,99950.25
2022-09-26T13:35:57.773Z,99944.69
2022-09-26T13:38:40.267Z,99943.41
2022-09-26T13:41:23.763Z,99943.28
2022-09-26T13:44:03.435Z,99936.16
2022-09-26T13:46:44.374Z,99936.00
2022-09-26T13:49:31.739Z,99929.34
2022-09-26T13:52:14.371Z,99931.16
2022-09-26T13:54:57.251Z,99927.13
2022-09-26T13:57:32.519Z,99926.44
2022-09-26T14:00:01.924Z,99919.34
2022-09-26T14:02:34.236Z,99916.94
2022-09-26T14:05:46.305Z,99908.25
2022-09-26T14:08:53.775Z,99899.41
2022-09-26T14:11:30.329Z,99890.50
2022-09-26T14:14:39.760Z,99889.75
2022-09-26T14:17:40.873Z,99892.72
2022-09-26T14:20:17.193Z,99883.69
2022-09-26T14:22:51.808Z,99894.59
2022-09-26T14:25:55.611Z,99884.22
2022-09-26T14:28:33.253Z,99880.19
2022-09-26T14:31:38.610Z,99878.72
2022-09-26T14:34:16.855Z,99867.84
2022-09-26T14:36:47.473Z,99859.25
2022-09-26T14:39:35.001Z,99867.44
2022-09-26T14:42:20.089Z,99858.41
2022-09-26T14:44:58.400Z,99858.91
2022-09-26T14:47:28.454Z,99859.03
2022-09-26T14:50:02.968Z,99866.84
2022-09-26T14:52:33.916Z,99860.09
2022-09-26T14:55:06.984Z,99852.13
2022-09-26T14:57:36.271Z,99849.22
2022-09-26T15:00:19.865Z,99847.91
2022-09-26T15:02:50.369Z,99849.22
2022-09-26T15:05:25.162Z,99848.00
2022-09-26T15:07:56.958Z,99851.31
2022-09-26T15:10:38.484Z,99845.53
2022-09-26T15:13:19.523Z,99838.53
2022-09-26T15:15:55.424Z,99842.81
2022-09-26T15:18:34.659Z,99838.63
2022-09-26T15:21:10.746Z,99830.91
2022-09-26T15:23:49.473Z,99824.56
2022-09-26T15:26:21.491Z,99837.03
2022-09-26T15:28:51.786Z,99825.50
2022-09-26T15:31:23.500Z,99830.91
2022-09-26T15:33:55.704Z,99836.56
2022-09-26T15:36:23.907Z,99838.38
2022-09-26T15:38:53.323Z,99829.84
2022-09-26T15:41:35.278Z,99825.84
2022-09-26T15:44:05.816Z,99823.75
2022-09-26T15:46:34.091Z,99818.34
2022-09-26T15:49:02.142Z,99818.44
2022-09-26T15:51:39.279Z,99812.03
2022-09-26T15:54:16.058Z,99811.38
2022-09-26T15:56:49.811Z,99810.31
2022-09-26T15:59:22.537Z,99817.13
2022-09-26T16:01:52.297Z,99811.03
2022-09-26T16:04:22.621Z,99810.22
2022-09-26T16:06:56.266Z,99809.59
2022-09-26T16:09:32.362Z,99800.91
2022-09-26T16:12:03.061Z,99796.63
2022-09-26T16:14:40.333Z,99801.00
2022-09-26T16:17:18.758Z,99796.97
2022-09-26T16:19:49.130Z,99801.47
2022-09-26T16:22:44.945Z,99794.97
2022-09-26T16:25:29.950Z,99798.28
2022-09-26T16:28:42.537Z,99791.69
2022-09-26T16:31:23.170Z,99789.56
2022-09-26T16:33:53.396Z,99787.69
2022-09-26T16:36:23.471Z,99787.88
2022-09-26T16:38:59.982Z,99790.03
2022-09-26T16:44:27.802Z,99787.41
2022-09-26T16:47:03.136Z,99789.00
2022-09-26T16:49:42.129Z,99780.69
2022-09-26T16:52:21.950Z,99786.09
2022-09-26T16:54:50.183Z,99780.59
2022-09-26T16:57:22.711Z,99780.59
2022-09-26T16:59:52.396Z,99781.06
2022-09-26T17:02:20.345Z,99773.31
2022-09-26T17:04:50.088Z,99771.56
2022-09-26T17:07:18.077Z,99777.50
2022-09-26T17:09:46.026Z,99773.88
2022-09-26T17:12:18.973Z,99775.75
2022-09-26T17:14:51.903Z,99771.25
2022-09-26T17:17:25.294Z,99773.31
2022-09-26T17:19:59.399Z,99776.69
2022-09-26T17:22:28.659Z,99774.59
2022-09-26T17:24:56.629Z,99768.66
2022-09-26T17:27:27.530Z,99765.38
2022-09-26T17:30:05.954Z,99776.69
2022-09-26T17:32:37.445Z,99763.16
2022-09-26T17:35:13.379Z,99769.97
2022-09-26T17:37:41.380Z,99761.38
2022-09-26T17:40:16.950Z,99758.06
2022-09-26T17:42:44.975Z,99761.59
2022-09-26T17:45:14.674Z,99753.50
2022-09-26T17:47:42.685Z,99754.97
2022-09-26T17:50:21.953Z,99756.81
2022-09-26T17:52:50.389Z,99760.34
2022-09-26T17:55:24.532Z,99760.13
2022-09-26T17:57:54.054Z,99759.41
2022-09-26T18:00:23.447Z,99758.44
2022-09-26T18:02:55.189Z,99753.91
2022-09-26T18:05:26.324Z,99747.84
2022-09-26T18:07:58.655Z,99751.44
2022-09-26T18:10:30.479Z,99743.22
2022-09-26T18:13:00.902Z,99748.94
2022-09-26T18:15:31.103Z,99743.53
2022-09-26T18:18:00.330Z,99739.41
2022-09-26T18:20:38.060Z,99740.34
2022-09-26T18:23:07.741Z,99741.44
2022-09-26T18:25:37.576Z,99739.09
2022-09-26T18:28:08.140Z,99739.16
2022-09-26T18:30:38.842Z,99739.66
2022-09-26T18:33:07.103Z,99735.88
2022-09-26T18:35:35.099Z,99735.09
2022-09-26T18:38:03.403Z,99732.22
2022-09-26T18:40:31.706Z,99741.69
2022-09-26T18:42:59.848Z,99738.81
2022-09-26T18:45:30.340Z,99730.72
2022-09-26T18:47:59.722Z,99737.47
2022-09-26T18:50:34.213Z,99738.31
2022-09-26T18:53:02.237Z,99733.22
2022-09-26T18:55:50.163Z,99741.31
2022-09-26T18:58:25.677Z,99741.84
2022-09-26T19:00:56.728Z,99736.81
2022-09-26T19:03:29.186Z,99740.69
2022-09-26T19:06:03.208Z,99732.66
2022-09-26T19:08:36.847Z,99731.00
2022-09-26T19:11:11.107Z,99723.16
2022-09-26T19:13:39.047Z,99730.56
2022-09-26T19:16:07.579Z,99729.09
2022-09-26T19:18:37.503Z,99726.09
2022-09-26T19:21:08.173Z,99717.00
2022-09-26T19:23:39.371Z,99718.44
2022-09-26T19:26:10.303Z,99722.44
2022-09-26T19:28:38.378Z,99718.84
2022-09-26T19:31:06.504Z,99721.28
2022-09-26T19:33:35.954Z,99717.47
2022-09-26T19:36:06.654Z,99711.72
2022-09-26T19:38:34.622Z,99714.78
2022-09-26T19:41:03.335Z,99715.59
2022-09-26T19:43:31.605Z,99704.72
2022-09-26T19:45:59.911Z,99701.34
2022-09-26T19:48:27.950Z,99697.56
2022-09-26T19:50:57.426Z,99694.88
2022-09-26T19:53:25.380Z,99696.50
2022-09-26T19:55:55.469Z,99691.19
2022-09-26T19:58:25.550Z,99690.66
2022-09-26T20:00:58.841Z,99696.22
2022-09-26T20:03:28.448Z,99702.69
2022-09-26T20:06:03.476Z,99696.13
2022-09-26T20:08:34.898Z,99697.72
2022-09-26T20:11:03.329Z,99687.63
2022-09-26T20:13:52.215Z,99688.28
2022-09-26T20:16:20.370Z,99687.47
2022-09-26T20:18:51.064Z,99685.97
2022-09-26T20:21:25.288Z,99678.75
2022-09-26T20:23:53.279Z,99663.44
2022-09-26T20:26:21.677Z,99672.81
2022-09-26T20:28:49.955Z,99670.84
2022-09-26T20:31:23.167Z,99663.47
2022-09-26T20:33:54.427Z,99658.56
2022-09-26T20:36:28.369Z,99658.28
2022-09-26T20:39:00.459Z,99666.13
2022-09-26T20:41:33.851Z,99654.72
2022-09-26T20:44:02.369Z,99658.81
2022-09-26T20:46:33.232Z,99656.66
2022-09-26T20:49:04.337Z,99655.28
2022-09-26T20:51:35.120Z,99653.16
2022-09-26T20:54:06.598Z,99654.19
2022-09-26T20:56:34.527Z,99645.63
2022-09-26T20:59:02.449Z,99638.97
2022-09-26T21:01:30.501Z,99638.44
2022-09-26T21:03:58.738Z,99635.16
2022-09-26T21:06:31.593Z,99634.47
2022-09-26T21:09:01.217Z,99624.59
2022-09-26T21:11:29.280Z,99633.47
2022-09-26T21:13:57.228Z,99623.50
2022-09-26T21:16:25.187Z,99617.00
2022-09-26T21:18:54.020Z,99622.41
2022-09-26T21:21:25.158Z,99624.50
2022-09-26T21:24:24.753Z,99619.38
2022-09-26T21:26:53.037Z,99624.09
2022-09-26T21:29:21.104Z,99623.47
2022-09-26T21:31:52.563Z,99617.25
2022-09-26T21:34:23.445Z,99621.47
2022-09-26T21:36:54.312Z,99613.69
2022-09-26T21:39:25.180Z,99615.00
2022-09-26T21:41:56.792Z,99617.16
2022-09-26T21:44:29.082Z,99605.41
2022-09-26T21:46:57.048Z,99609.44
2022-09-26T21:49:25.741Z,99603.06
2022-09-26T21:51:58.916Z,99596.56
2022-09-26T21:54:32.908Z,99596.00
2022-09-26T21:57:06.235Z,99594.59
2022-09-26T21:59:34.020Z,99579.63
2022-09-26T22:02:02.107Z,99587.22
2022-09-26T22:04:30.087Z,99590.25
2022-09-26T22:06:58.079Z,99578.00
2022-09-26T22:09:26.067Z,99571.78
2022-09-26T22:11:55.495Z,99571.94
2022-09-26T22:14:23.451Z,99571.66
2022-09-26T22:16:51.495Z,99557.94
2022-09-26T22:19:19.828Z,99564.13
2022-09-26T22:21:47.866Z,99554.69
2022-09-26T22:24:15.871Z,99557.31
2022-09-26T22:26:45.093Z,99542.78
2022-09-26T22:29:14.744Z,99543.47
2022-09-26T22:31:43.257Z,99543.28
2022-09-26T22:34:11.794Z,99532.75
2022-09-26T22:36:39.791Z,99521.94
2022-09-26T22:39:07.814Z,99519.63
2022-09-26T22:41:35.748Z,99527.44
2022-09-26T22:44:04.061Z,99519.97
2022-09-26T22:46:35.324Z,99521.47
2022-09-26T22:49:03.681Z,99520.31
2022-09-26T22:51:31.655Z,99518.56
2022-09-26T22:53:59.640Z,99516.91
2022-09-26T22:56:27.683Z,99515.28
2022-09-26T22:58:55.764Z,99509.47
2022-09-26T23:01:27.297Z,99508.63
2022-09-26T23:03:58.615Z,99508.53
2022-09-26T23:06:27.384Z,99492.91
2022-09-26T23:08:56.262Z,99494.34
2022-09-26T23:11:24.907Z,99483.03
2022-09-26T23:13:53.698Z,99482.22
2022-09-26T23:16:24.112Z,99472.81
2022-09-26T23:18:52.784Z,99468.31
2022-09-26T23:21:24.061Z,99463.28
2022-09-26T23:23:54.885Z,99463.94
2022-09-26T23:26:25.006Z,99459.13
2022-09-26T23:28:55.073Z,99457.38
2022-09-26T23:31:24.160Z,99453.69
2022-09-26T23:33:53.189Z,99448.09
2022-09-26T23:36:23.086Z,99451.56
2022-09-26T23:38:51.264Z,99448.88
2022-09-26T23:41:19.617Z,99444.41
2022-09-26T23:43:47.593Z,99436.09
2022-09-26T23:46:15.985Z,99438.13
2022-09-26T23:48:44.513Z,99437.47
2022-09-26T23:51:12.583Z,99427.53
2022-09-26T23:53:41.866Z,99432.56
2022-09-26T23:56:11.969Z,99429.56
2022-09-26T23:58:40.223Z,99429.97
